Katowice International Airport

EPKT · Silesia, Poland

October 7, 2022

Time Code Weather Temp. Visibility Ceiling Wind METAR/SPECI
18:00
V
15 °C 10 km+ - 140° 140° 4 kt METAR EPKT 071600Z 14004KT 130V190 CAVOK 15/12 Q1023
17:30
V
19 °C 10 km+ - 140° 140° 4 kt METAR EPKT 071530Z 14004KT CAVOK 19/12 Q1023
17:00
V
19 °C 10 km+ - 160° 160° 4 kt METAR EPKT 071500Z 16004KT CAVOK 19/11 Q1024
16:30
V
20 °C 10 km+ - 160° 160° 6 kt METAR EPKT 071430Z 16006KT CAVOK 20/11 Q1024
16:00
V
20 °C 10 km+ - 180° 180° 6 kt METAR EPKT 071400Z 18006KT 130V210 CAVOK 20/10 Q1024
15:30
V
20 °C 10 km+ - 170° 170° 5 kt METAR EPKT 071330Z 17005KT CAVOK 20/10 Q1025
15:00
V
20 °C 10 km+ - 140° 140° 5 kt METAR EPKT 071300Z 14005KT 120V180 CAVOK 20/10 Q1025
14:30
V
20 °C 10 km+ - 160° 160° 5 kt METAR EPKT 071230Z 16005KT 120V200 CAVOK 20/11 Q1026
14:00
V
19 °C 10 km+ - Var Var 4 kt METAR EPKT 071200Z VRB04KT CAVOK 19/11 Q1026
13:30
V
19 °C 10 km+ - Var Var 4 kt METAR EPKT 071130Z VRB04KT CAVOK 19/11 Q1027
13:00
V
19 °C 10 km+ - 170° 170° 7 kt METAR EPKT 071100Z 17007KT 140V210 CAVOK 19/12 Q1027
12:30
V
18 °C 10 km+ - 150° 150° 7 kt METAR EPKT 071030Z 15007KT CAVOK 18/11 Q1028
12:00
V
18 °C 10 km+ - 130° 130° 6 kt METAR EPKT 071000Z 13006KT 090V160 CAVOK 18/11 Q1028
11:30
V
17 °C 10 km+ - 120° 120° 7 kt METAR EPKT 070930Z 12007KT CAVOK 17/12 Q1028
11:00
V
15 °C 10 km+ - 120° 120° 8 kt METAR EPKT 070900Z 12008KT 090V150 CAVOK 15/11 Q1029
10:30
V
15 °C 10 km+ - 130° 130° 7 kt METAR EPKT 070830Z 13007KT 110V170 CAVOK 15/11 Q1029
10:00
V
13 °C 10 km+ - 110° 110° 6 kt METAR EPKT 070800Z 11006KT CAVOK 13/10 Q1029
09:30
V
12 °C 10 km+ - 130° 130° 3 kt METAR EPKT 070730Z 13003KT 090V220 CAVOK 12/10 Q1029
09:00
V
10 °C 10 km+ - 080° 080° 3 kt METAR EPKT 070700Z 08003KT 040V110 CAVOK 10/09 Q1029
08:30
V
8 °C 10 km+ - Var Var 2 kt METAR EPKT 070630Z VRB02KT CAVOK 08/08 Q1030
08:00
V
4 °C 9 km - 070° 070° 3 kt METAR EPKT 070600Z 07003KT 9000 NSC 04/03 Q1030
07:30
V
2 °C 9 km - Var Var 2 kt METAR EPKT 070530Z VRB02KT 9000 MIFG NSC 02/02 Q1030
07:00
I
2 °C 2 km - 050° 050° 2 kt METAR EPKT 070500Z 05002KT 2000 0800N BCFG BR NSC 02/01 Q1030
06:30
I
2 °C 3 km - 040° 040° 3 kt METAR EPKT 070430Z 04003KT 3000 0800NW BCFG BR NSC 02/02 Q1030
06:00
L
2 °C 600 m - 040° 040° 1 kt METAR EPKT 070400Z 04001KT 0600 0500N R26/1600U FG FEW000 02/02 Q1030
05:30
L
2 °C 150 m - 050° 050° 2 kt METAR EPKT 070330Z 05002KT 0150 R26/1000U FG FEW000 02/02 Q1030
05:00
L
2 °C 200 m - 050° 050° 3 kt METAR EPKT 070300Z 05003KT 0200 R26/0800N FG FEW000 02/02 Q1031
04:30
L
2 °C 250 m - 050° 050° 2 kt METAR EPKT 070230Z 05002KT 0250 R26/0800D FG NSC 02/02 Q1031
04:00
I
3 °C 1.5 km - 060° 060° 1 kt METAR EPKT 070200Z 06001KT 1500 0900NW BCFG BR NSC 03/03 Q1031
03:30
M
3 °C 6 km - 020° 020° 1 kt METAR EPKT 070130Z 02001KT 6000 0900N BCFG NSC 03/03 Q1031
03:00
I
3 °C 4.2 km - 050° 050° 2 kt METAR EPKT 070100Z 05002KT 4200 0800N BCFG BR NSC 03/03 Q1031
02:30
L
4 °C 1 km - 060° 060° 2 kt METAR EPKT 070030Z 06002KT 1000 0600N R26/P2000N BCFG BR NSC 04/03 Q1032
02:00
L
4 °C 1.2 km - Var Var 1 kt METAR EPKT 070000Z VRB01KT 1200 0500N R26/P2000N BCFG BR NSC 04/04 Q1032
01:30
L
4 °C 1.4 km - 060° 060° 2 kt METAR EPKT 062330Z 06002KT 1400 0300N R26/P2000N BCFG BR NSC 04/04 Q1032
01:00
L
5 °C 1.3 km - Var Var 1 kt METAR EPKT 062300Z VRB01KT 1300 0400NW R26/P2000N BCFG BR NSC 05/05 Q1032
00:30
L
6 °C 1.3 km - Var Var 2 kt METAR EPKT 062230Z VRB02KT 1300 0300N R26/P2000N BCFG BR NSC 06/06 Q1032
00:00
I
6 °C 1.5 km - 090° 090° 2 kt METAR EPKT 062200Z 09002KT 1500 0400NE R26/1100U BCFG BR NSC 06/06 Q1032

October 6, 2022

Time Code Weather Temp. Visibility Ceiling Wind METAR/SPECI
23:30
I
7 °C 2.5 km - Var Var 1 kt METAR EPKT 062130Z VRB01KT 2500 0500NE R26/1200D BCFG BR NSC 07/06 Q1032
23:00
V
8 °C 9 km - 180° 180° 3 kt METAR EPKT 062100Z 18003KT 9000 0500NE BCFG NSC 08/08 Q1032
22:30
L
9 °C 1.3 km - Var Var 1 kt METAR EPKT 062030Z VRB01KT 1300 0500NE R26/0750U BCFG BR NSC 09/09 Q1031
22:00
M
9 °C 6 km - Var Var 2 kt METAR EPKT 062000Z VRB02KT 6000 0600NE BCFG NSC 09/09 Q1031
21:30
L
10 °C 1.3 km - 280° 280° 3 kt METAR EPKT 061930Z 28003KT 1300 0500NE R26/1600U BCFG BR NSC 10/10 Q1031
21:00
V
10 °C 8 km - 250° 250° 4 kt METAR EPKT 061900Z 25004KT 8000 MIFG NSC 10/09 Q1031
20:30
V
11 °C 10 km+ - 260° 260° 3 kt METAR EPKT 061830Z 26003KT CAVOK 11/10 Q1030
20:00
V
11 °C 10 km+ - 290° 290° 3 kt METAR EPKT 061800Z 29003KT CAVOK 11/10 Q1030
19:30
V
13 °C 10 km+ - 290° 290° 3 kt METAR EPKT 061730Z 29003KT CAVOK 13/11 Q1030
19:00
V
13 °C 10 km+ - 270° 270° 3 kt METAR EPKT 061700Z 27003KT 9999 FEW033 13/11 Q1030
18:30
V
15 °C 10 km+ - 290° 290° 6 kt METAR EPKT 061630Z 29006KT 260V330 9999 SCT028 15/11 Q1029
18:00
M
16 °C 10 km+ 2,600 ft 300° 300° 3 kt METAR EPKT 061600Z 30003KT 9999 BKN026 16/12 Q1029
17:30
M
16 °C 10 km+ 2,900 ft 330° 330° 6 kt METAR EPKT 061530Z 33006KT 9999 FEW020 BKN029 16/12 Q1029
17:00
V
17 °C 10 km+ 3,400 ft 310° 310° 9 kt METAR EPKT 061500Z 31009KT 280V340 9999 SCT020 BKN034 17/13 Q1029
16:30
M
17 °C 10 km+ 2,400 ft 330° 330° 5 kt METAR EPKT 061430Z 33005KT 9999 BKN024 17/13 Q1028
16:00
M
18 °C 10 km+ 2,600 ft 310° 310° 5 kt METAR EPKT 061400Z 31005KT 9999 BKN026 18/13 Q1028
15:30
V
19 °C 10 km+ 4,200 ft 310° 310° 6 kt METAR EPKT 061330Z 31006KT 270V340 9999 FEW027 BKN042 19/13 Q1028
15:00
V
19 °C 10 km+ - 280° 280° 8 kt METAR EPKT 061300Z 28008KT 9999 SCT027 19/13 Q1028
14:30
M
19 °C 10 km+ 2,800 ft 270° 270° 10 kt METAR EPKT 061230Z 27010KT 9999 BKN028 19/13 Q1027
14:00
V
19 °C 10 km+ 3,700 ft 250° 250° 10 kt METAR EPKT 061200Z 25010KT 9999 FEW030 BKN037 19/12 Q1027
13:30
M
18 °C 10 km+ 2,900 ft 270° 270° 8 kt METAR EPKT 061130Z 27008KT 9999 BKN029 18/13 Q1027
13:00
M
18 °C 10 km+ 2,900 ft 260° 260° 9 kt METAR EPKT 061100Z 26009KT 9999 BKN029 18/12 Q1027
12:30
V
19 °C 10 km+ - 260° 260° 10 kt METAR EPKT 061030Z 26010KT 9999 SCT031 19/12 Q1027
12:00
V
19 °C 10 km+ - 260° 260° 11 kt METAR EPKT 061000Z 26011KT CAVOK 19/12 Q1027
11:30
V
18 °C 10 km+ - 250° 250° 10 kt METAR EPKT 060930Z 25010KT CAVOK 18/12 Q1027
11:00
V
17 °C 10 km+ - 220° 220° 7 kt METAR EPKT 060900Z 22007KT CAVOK 17/11 Q1026
10:30
V
16 °C 10 km+ - 240° 240° 9 kt METAR EPKT 060830Z 24009KT 210V270 CAVOK 16/11 Q1026
10:00
V
14 °C 10 km+ - 230° 230° 9 kt METAR EPKT 060800Z 23009KT 9999 SCT040 14/10 Q1026
09:30
V
13 °C 10 km+ 3,800 ft 230° 230° 8 kt METAR EPKT 060730Z 23008KT 9999 BKN038 13/10 Q1026
09:00
V
13 °C 10 km+ - 230° 230° 8 kt METAR EPKT 060700Z 23008KT CAVOK 13/09 Q1025
08:30
V
12 °C 10 km+ - 230° 230° 9 kt METAR EPKT 060630Z 23009KT CAVOK 12/09 Q1025
08:00
V
12 °C 10 km+ - 230° 230° 8 kt METAR EPKT 060600Z 23008KT CAVOK 12/09 Q1025
07:30
V
11 °C 10 km+ - 210° 210° 7 kt METAR EPKT 060530Z 21007KT CAVOK 11/08 Q1024
07:00
V
11 °C 10 km+ - 220° 220° 7 kt METAR EPKT 060500Z 22007KT CAVOK 11/08 Q1024
06:30
V
11 °C 10 km+ - 230° 230° 8 kt METAR EPKT 060430Z 23008KT CAVOK 11/08 Q1024
06:00
V
11 °C 10 km+ - 230° 230° 10 kt METAR EPKT 060400Z 23010KT CAVOK 11/08 Q1023
05:30
V
12 °C 10 km+ - 230° 230° 10 kt METAR EPKT 060330Z 23010KT CAVOK 12/08 Q1023
05:00
V
12 °C 10 km+ - 230° 230° 12 kt METAR EPKT 060300Z 23012KT CAVOK 12/08 Q1023
04:30
V
12 °C 10 km+ - 230° 230° 12 kt METAR EPKT 060230Z 23012KT CAVOK 12/08 Q1023
04:00
V
12 °C 10 km+ - 230° 230° 13 kt METAR EPKT 060200Z 23013KT CAVOK 12/08 Q1023
03:30
V
13 °C 10 km+ - 230° 230° 14 kt METAR EPKT 060130Z 23014KT CAVOK 13/08 Q1023
03:00
V
13 °C 10 km+ - 230° 230° 14 kt METAR EPKT 060100Z 23014KT CAVOK 13/08 Q1023
02:30
V
13 °C 10 km+ - 230° 230° 14 kt METAR EPKT 060030Z 23014KT CAVOK 13/08 Q1023
02:00
V
12 °C 10 km+ - 230° 230° 12 kt METAR EPKT 060000Z 23012KT CAVOK 12/08 Q1023
01:30
V
11 °C 10 km+ - 220° 220° 9 kt METAR EPKT 052330Z 22009KT CAVOK 11/08 Q1023
01:00
V
11 °C 10 km+ - 220° 220° 9 kt METAR EPKT 052300Z 22009KT CAVOK 11/08 Q1022
00:30
V
11 °C 10 km+ - 210° 210° 11 kt METAR EPKT 052230Z 21011KT CAVOK 11/08 Q1022
00:00
V
11 °C 10 km+ - 210° 210° 11 kt METAR EPKT 052200Z 21011KT CAVOK 11/08 Q1022

October 5, 2022

Time Code Weather Temp. Visibility Ceiling Wind METAR/SPECI
23:30
V
12 °C 10 km+ - 220° 220° 10 kt METAR EPKT 052130Z 22010KT CAVOK 12/09 Q1022
23:00
V
12 °C 10 km+ - 210° 210° 10 kt METAR EPKT 052100Z 21010KT CAVOK 12/09 Q1022
22:30
V
13 °C 10 km+ - 220° 220° 10 kt METAR EPKT 052030Z 22010KT CAVOK 13/09 Q1022
22:00
V
13 °C 10 km+ - 230° 230° 12 kt METAR EPKT 052000Z 23012KT CAVOK 13/09 Q1022
21:30
V
13 °C 10 km+ - 220° 220° 11 kt METAR EPKT 051930Z 22011KT CAVOK 13/09 Q1022
21:00
V
13 °C 10 km+ - 220° 220° 12 kt METAR EPKT 051900Z 22012KT CAVOK 13/09 Q1022
20:30
V
13 °C 10 km+ - 220° 220° 8 kt METAR EPKT 051830Z 22008KT CAVOK 13/09 Q1022
20:00
V
13 °C 10 km+ - 210° 210° 8 kt METAR EPKT 051800Z 21008KT CAVOK 13/09 Q1022
19:30
V
14 °C 10 km+ - 220° 220° 8 kt METAR EPKT 051730Z 22008KT CAVOK 14/09 Q1022
19:00
V
14 °C 10 km+ - 210° 210° 9 kt METAR EPKT 051700Z 21009KT CAVOK 14/09 Q1022
18:30
V
14 °C 10 km+ - 200° 200° 7 kt METAR EPKT 051630Z 20007KT CAVOK 14/09 Q1022
18:00
V
15 °C 10 km+ - 210° 210° 8 kt METAR EPKT 051600Z 21008KT CAVOK 15/09 Q1022
17:30
V
16 °C 10 km+ - 200° 200° 9 kt METAR EPKT 051530Z 20009KT 170V250 CAVOK 16/08 Q1022
17:00
V
16 °C 10 km+ - 210° 210° 9 kt METAR EPKT 051500Z 21009KT CAVOK 16/08 Q1022
Older data

We and third parties follow your internet behavior on our website with cookies. If you continue, we assume you agree with our cookie policy. Learn more